sensor_id;sensor_type;location;lat;lon;timestamp;pressure;altitude;pressure_sealevel;temperature;humidity
58955;BME280;45815;52.334;5.024;2022-11-15T00:01:38;100853.25;;;6.85;100.00
58955;BME280;45815;52.334;5.024;2022-11-15T00:04:22;100866.53;;;6.91;100.00
58955;BME280;45815;52.334;5.024;2022-11-15T00:07:06;100867.47;;;6.93;100.00
58955;BME280;45815;52.334;5.024;2022-11-15T00:09:50;100869.22;;;6.94;100.00
58955;BME280;45815;52.334;5.024;2022-11-15T00:12:34;100861.16;;;6.87;100.00
58955;BME280;45815;52.334;5.024;2022-11-15T00:15:18;100862.03;;;6.87;100.00
58955;BME280;45815;52.334;5.024;2022-11-15T00:18:03;100861.09;;;6.85;100.00
58955;BME280;45815;52.334;5.024;2022-11-15T00:20:47;100842.75;;;6.82;100.00
58955;BME280;45815;52.334;5.024;2022-11-15T00:23:32;100850.72;;;6.87;100.00
58955;BME280;45815;52.334;5.024;2022-11-15T00:26:16;100848.03;;;6.85;100.00
58955;BME280;45815;52.334;5.024;2022-11-15T00:29:00;100854.16;;;6.86;100.00
58955;BME280;45815;52.334;5.024;2022-11-15T00:31:44;100848.78;;;6.81;100.00
58955;BME280;45815;52.334;5.024;2022-11-15T00:34:28;100856.88;;;6.89;100.00
58955;BME280;45815;52.334;5.024;2022-11-15T00:37:11;100856.09;;;6.91;100.00
58955;BME280;45815;52.334;5.024;2022-11-15T00:39:55;100849.16;;;6.92;100.00
58955;BME280;45815;52.334;5.024;2022-11-15T00:42:40;100853.50;;;6.93;100.00
58955;BME280;45815;52.334;5.024;2022-11-15T00:45:24;100839.41;;;6.86;100.00
58955;BME280;45815;52.334;5.024;2022-11-15T00:48:09;100854.38;;;6.92;100.00
58955;BME280;45815;52.334;5.024;2022-11-15T00:50:53;100836.97;;;6.92;100.00
58955;BME280;45815;52.334;5.024;2022-11-15T00:53:37;100822.03;;;6.87;100.00
58955;BME280;45815;52.334;5.024;2022-11-15T00:56:21;100830.03;;;6.93;100.00
58955;BME280;45815;52.334;5.024;2022-11-15T00:59:05;100836.88;;;6.89;100.00
58955;BME280;45815;52.334;5.024;2022-11-15T01:01:48;100830.00;;;6.91;100.00
58955;BME280;45815;52.334;5.024;2022-11-15T01:04:32;100832.63;;;6.93;100.00
58955;BME280;45815;52.334;5.024;2022-11-15T01:07:16;100837.84;;;6.91;100.00
58955;BME280;45815;52.334;5.024;2022-11-15T01:10:00;100837.84;;;6.91;100.00
58955;BME280;45815;52.334;5.024;2022-11-15T01:12:44;100835.38;;;6.96;100.00
58955;BME280;45815;52.334;5.024;2022-11-15T01:15:28;100824.06;;;6.95;100.00
58955;BME280;45815;52.334;5.024;2022-11-15T01:18:12;100819.72;;;6.96;100.00
58955;BME280;45815;52.334;5.024;2022-11-15T01:20:56;100823.13;;;6.93;100.00
58955;BME280;45815;52.334;5.024;2022-11-15T01:23:40;100821.53;;;6.98;100.00
58955;BME280;45815;52.334;5.024;2022-11-15T01:26:25;100807.47;;;6.93;100.00
58955;BME280;45815;52.334;5.024;2022-11-15T01:29:09;100812.84;;;6.98;100.00
58955;BME280;45815;52.334;5.024;2022-11-15T01:31:53;100824.09;;;6.97;100.00
58955;BME280;45815;52.334;5.024;2022-11-15T01:34:38;100816.97;;;6.91;100.00
58955;BME280;45815;52.334;5.024;2022-11-15T01:37:21;100813.41;;;6.89;100.00
58955;BME280;45815;52.334;5.024;2022-11-15T01:40:06;100804.94;;;6.96;100.00
58955;BME280;45815;52.334;5.024;2022-11-15T01:42:50;100808.41;;;6.95;100.00
58955;BME280;45815;52.334;5.024;2022-11-15T01:45:34;100808.41;;;6.95;100.00
58955;BME280;45815;52.334;5.024;2022-11-15T01:48:18;100803.28;;;6.98;100.00
58955;BME280;45815;52.334;5.024;2022-11-15T01:51:09;100805.00;;;6.98;100.00
58955;BME280;45815;52.334;5.024;2022-11-15T01:53:57;100802.44;;;7.00;100.00
58955;BME280;45815;52.334;5.024;2022-11-15T01:56:52;100802.41;;;6.98;100.00
58955;BME280;45815;52.334;5.024;2022-11-15T01:59:40;100802.56;;;7.03;100.00
58955;BME280;45815;52.334;5.024;2022-11-15T02:02:25;100802.69;;;7.07;100.00
58955;BME280;45815;52.334;5.024;2022-11-15T02:05:10;100795.84;;;7.11;100.00
58955;BME280;45815;52.334;5.024;2022-11-15T02:07:54;100795.09;;;7.15;100.00
58955;BME280;45815;52.334;5.024;2022-11-15T02:10:38;100790.84;;;7.18;100.00
58955;BME280;45815;52.334;5.024;2022-11-15T02:13:22;100785.59;;;7.17;100.00
58955;BME280;45815;52.334;5.024;2022-11-15T02:22:43;100765.75;;;7.22;100.00
58955;BME280;45815;52.334;5.024;2022-11-15T02:29:05;100743.19;;;7.24;100.00
58955;BME280;45815;52.334;5.024;2022-11-15T02:32:03;100752.03;;;7.29;100.00
58955;BME280;45815;52.334;5.024;2022-11-15T02:35:29;100740.72;;;7.29;100.00
58955;BME280;45815;52.334;5.024;2022-11-15T02:41:27;100733.16;;;7.38;100.00
58955;BME280;45815;52.334;5.024;2022-11-15T02:44:21;100729.69;;;7.37;100.00
58955;BME280;45815;52.334;5.024;2022-11-15T02:47:10;100733.41;;;7.46;100.00
58955;BME280;45815;52.334;5.024;2022-11-15T02:50:02;100734.47;;;7.52;100.00
58955;BME280;45815;52.334;5.024;2022-11-15T02:52:51;100726.84;;;7.60;100.00
58955;BME280;45815;52.334;5.024;2022-11-15T02:55:37;100728.63;;;7.61;100.00
58955;BME280;45815;52.334;5.024;2022-11-15T03:01:46;100707.94;;;7.69;100.00
58955;BME280;45815;52.334;5.024;2022-11-15T03:10:46;100717.13;;;7.85;100.00
58955;BME280;45815;52.334;5.024;2022-11-15T03:16:32;100718.25;;;7.94;100.00
58955;BME280;45815;52.334;5.024;2022-11-15T03:19:25;100717.63;;;8.03;100.00
58955;BME280;45815;52.334;5.024;2022-11-15T03:22:15;100719.47;;;8.07;100.00
58955;BME280;45815;52.334;5.024;2022-11-15T03:25:06;100721.25;;;8.10;100.00
58955;BME280;45815;52.334;5.024;2022-11-15T03:27:54;100721.50;;;8.17;100.00
58955;BME280;45815;52.334;5.024;2022-11-15T03:30:39;100723.31;;;8.21;100.00
58955;BME280;45815;52.334;5.024;2022-11-15T03:33:25;100716.50;;;8.27;100.00
58955;BME280;45815;52.334;5.024;2022-11-15T03:36:11;100713.97;;;8.30;100.00
58955;BME280;45815;52.334;5.024;2022-11-15T03:38:59;100703.69;;;8.37;100.00
58955;BME280;45815;52.334;5.024;2022-11-15T03:44:51;100716.34;;;8.52;100.00
58955;BME280;45815;52.334;5.024;2022-11-15T03:47:49;100720.88;;;8.59;100.00
58955;BME280;45815;52.334;5.024;2022-11-15T03:50:35;100713.09;;;8.62;100.00
58955;BME280;45815;52.334;5.024;2022-11-15T03:53:19;100711.53;;;8.71;100.00
58955;BME280;45815;52.334;5.024;2022-11-15T03:56:03;100714.31;;;8.77;100.00
58955;BME280;45815;52.334;5.024;2022-11-15T03:58:47;100709.22;;;8.83;100.00
58955;BME280;45815;52.334;5.024;2022-11-15T04:01:31;100711.06;;;8.87;100.00
58955;BME280;45815;52.334;5.024;2022-11-15T04:04:15;100705.03;;;8.91;100.00
58955;BME280;45815;52.334;5.024;2022-11-15T04:06:59;100695.44;;;8.90;100.00
58955;BME280;45815;52.334;5.024;2022-11-15T04:09:43;100708.69;;;8.98;100.00
58955;BME280;45815;52.334;5.024;2022-11-15T04:12:46;100701.81;;;9.01;100.00
58955;BME280;45815;52.334;5.024;2022-11-15T04:15:34;100710.66;;;9.08;100.00
58955;BME280;45815;52.334;5.024;2022-11-15T04:18:18;100702.91;;;9.13;100.00
58955;BME280;45815;52.334;5.024;2022-11-15T04:21:03;100704.72;;;9.14;100.00
58955;BME280;45815;52.334;5.024;2022-11-15T04:24:05;100699.53;;;9.17;100.00
58955;BME280;45815;52.334;5.024;2022-11-15T04:26:58;100706.56;;;9.18;100.00
58955;BME280;45815;52.334;5.024;2022-11-15T04:29:43;100711.91;;;9.24;100.00
58955;BME280;45815;52.334;5.024;2022-11-15T04:32:27;100706.72;;;9.27;100.00
58955;BME280;45815;52.334;5.024;2022-11-15T04:35:11;100706.81;;;9.32;100.00
58955;BME280;45815;52.334;5.024;2022-11-15T04:37:56;100702.56;;;9.35;100.00
58955;BME280;45815;52.334;5.024;2022-11-15T04:40:41;100697.38;;;9.38;100.00
58955;BME280;45815;52.334;5.024;2022-11-15T04:43:25;100706.22;;;9.43;100.00
58955;BME280;45815;52.334;5.024;2022-11-15T04:46:09;100692.19;;;9.40;100.00
58955;BME280;45815;52.334;5.024;2022-11-15T04:48:53;100685.25;;;9.42;100.00
58955;BME280;45815;52.334;5.024;2022-11-15T04:51:38;100693.25;;;9.49;100.00
58955;BME280;45815;52.334;5.024;2022-11-15T04:54:24;100683.59;;;9.47;100.00
58955;BME280;45815;52.334;5.024;2022-11-15T04:57:08;100695.16;;;9.57;100.00
58955;BME280;45815;52.334;5.024;2022-11-15T04:59:52;100693.44;;;9.59;100.00
58955;BME280;45815;52.334;5.024;2022-11-15T05:02:36;100692.66;;;9.63;100.00
58955;BME280;45815;52.334;5.024;2022-11-15T05:05:39;100697.03;;;9.64;100.00
58955;BME280;45815;52.334;5.024;2022-11-15T05:08:24;100704.13;;;9.68;100.00
58955;BME280;45815;52.334;5.024;2022-11-15T05:11:08;100714.66;;;9.71;100.00
58955;BME280;45815;52.334;5.024;2022-11-15T05:13:52;100707.72;;;9.73;100.00
58955;BME280;45815;52.334;5.024;2022-11-15T05:16:37;100718.25;;;9.76;100.00
58955;BME280;45815;52.334;5.024;2022-11-15T05:19:21;100720.94;;;9.79;100.00
58955;BME280;45815;52.334;5.024;2022-11-15T05:22:05;100722.69;;;9.79;100.00
58955;BME280;45815;52.334;5.024;2022-11-15T05:24:49;100722.75;;;9.82;100.00
58955;BME280;45815;52.334;5.024;2022-11-15T05:27:34;100711.31;;;9.78;100.00
58955;BME280;45815;52.334;5.024;2022-11-15T05:30:18;100726.38;;;9.88;100.00
58955;BME280;45815;52.334;5.024;2022-11-15T05:33:02;100722.88;;;9.89;100.00
58955;BME280;45815;52.334;5.024;2022-11-15T05:35:50;100722.09;;;9.93;100.00
58955;BME280;45815;52.334;5.024;2022-11-15T05:38:34;100723.94;;;9.98;100.00
58955;BME280;45815;52.334;5.024;2022-11-15T05:41:20;100719.56;;;9.98;100.00
58955;BME280;45815;52.334;5.024;2022-11-15T05:44:07;100720.50;;;10.02;100.00
58955;BME280;45815;52.334;5.024;2022-11-15T05:46:54;100721.41;;;10.04;100.00
58955;BME280;45815;52.334;5.024;2022-11-15T05:49:40;100725.00;;;10.07;100.00
58955;BME280;45815;52.334;5.024;2022-11-15T05:52:29;100721.50;;;10.07;100.00
58955;BME280;45815;52.334;5.024;2022-11-15T05:55:15;100718.94;;;10.10;100.00
58955;BME280;45815;52.334;5.024;2022-11-15T05:58:00;100712.81;;;10.11;100.00
58955;BME280;45815;52.334;5.024;2022-11-15T06:00:44;100705.78;;;10.08;100.00
58955;BME280;45815;52.334;5.024;2022-11-15T06:03:29;100705.91;;;10.14;100.00
58955;BME280;45815;52.334;5.024;2022-11-15T06:06:12;100718.16;;;10.15;100.00
58955;BME280;45815;52.334;5.024;2022-11-15T06:08:56;100724.34;;;10.19;100.00
58955;BME280;45815;52.334;5.024;2022-11-15T06:11:40;100713.91;;;10.22;100.00
58955;BME280;45815;52.334;5.024;2022-11-15T06:14:24;100733.22;;;10.26;100.00
58955;BME280;45815;52.334;5.024;2022-11-15T06:17:08;100726.22;;;10.26;100.00
58955;BME280;45815;52.334;5.024;2022-11-15T06:19:52;100740.28;;;10.28;100.00
58955;BME280;45815;52.334;5.024;2022-11-15T06:22:36;100730.69;;;10.29;100.00
58955;BME280;45815;52.334;5.024;2022-11-15T06:25:20;100733.34;;;10.30;100.00
58955;BME280;45815;52.334;5.024;2022-11-15T06:28:04;100727.25;;;10.34;100.00
58955;BME280;45815;52.334;5.024;2022-11-15T06:30:48;100735.09;;;10.31;100.00
58955;BME280;45815;52.334;5.024;2022-11-15T06:33:32;100736.88;;;10.32;100.00
58955;BME280;45815;52.334;5.024;2022-11-15T06:36:16;100737.75;;;10.34;100.00
58955;BME280;45815;52.334;5.024;2022-11-15T06:39:00;100739.50;;;10.34;100.00
58955;BME280;45815;52.334;5.024;2022-11-15T06:41:44;100739.50;;;10.32;100.00
58955;BME280;45815;52.334;5.024;2022-11-15T06:44:28;100740.47;;;10.38;100.00
58955;BME280;45815;52.334;5.024;2022-11-15T06:47:12;100743.03;;;10.36;100.00
58955;BME280;45815;52.334;5.024;2022-11-15T06:49:56;100753.59;;;10.38;100.00
58955;BME280;45815;52.334;5.024;2022-11-15T06:52:40;100749.13;;;10.33;100.00
58955;BME280;45815;52.334;5.024;2022-11-15T06:55:24;100756.22;;;10.38;100.00
58955;BME280;45815;52.334;5.024;2022-11-15T06:58:08;100762.38;;;10.40;100.00
58955;BME280;45815;52.334;5.024;2022-11-15T07:00:52;100757.13;;;10.41;100.00
58955;BME280;45815;52.334;5.024;2022-11-15T07:03:37;100754.53;;;10.43;100.00
58955;BME280;45815;52.334;5.024;2022-11-15T07:06:21;100753.63;;;10.41;100.00
58955;BME280;45815;52.334;5.024;2022-11-15T07:09:05;100753.75;;;10.47;100.00
58955;BME280;45815;52.334;5.024;2022-11-15T07:11:49;100752.03;;;10.50;100.00
58955;BME280;45815;52.334;5.024;2022-11-15T07:14:33;100751.13;;;10.47;100.00
58955;BME280;45815;52.334;5.024;2022-11-15T07:17:17;100753.72;;;10.45;100.00
58955;BME280;45815;52.334;5.024;2022-11-15T07:20:01;100755.41;;;10.43;100.00
58955;BME280;45815;52.334;5.024;2022-11-15T07:22:45;100765.91;;;10.43;100.00
58955;BME280;45815;52.334;5.024;2022-11-15T07:25:29;100757.13;;;10.41;100.00
58955;BME280;45815;52.334;5.024;2022-11-15T07:28:13;100760.59;;;10.39;100.00
58955;BME280;45815;52.334;5.024;2022-11-15T07:30:57;100762.28;;;10.37;100.00
58955;BME280;45815;52.334;5.024;2022-11-15T07:33:41;100753.53;;;10.36;100.00
58955;BME280;45815;52.334;5.024;2022-11-15T07:36:25;100753.50;;;10.34;100.00
58955;BME280;45815;52.334;5.024;2022-11-15T07:39:09;100750.97;;;10.38;100.00
58955;BME280;45815;52.334;5.024;2022-11-15T07:41:53;100744.84;;;10.39;100.00
58955;BME280;45815;52.334;5.024;2022-11-15T07:44:57;100745.59;;;10.31;100.00
58955;BME280;45815;52.334;5.024;2022-11-15T07:47:45;100749.84;;;10.26;100.00
58955;BME280;45815;52.334;5.024;2022-11-15T07:50:29;100754.31;;;10.30;100.00
58955;BME280;45815;52.334;5.024;2022-11-15T07:53:14;100756.03;;;10.28;100.00
58955;BME280;45815;52.334;5.024;2022-11-15T07:55:58;100755.16;;;10.29;100.00
58955;BME280;45815;52.334;5.024;2022-11-15T07:58:45;100748.16;;;10.30;100.00
58955;BME280;45815;52.334;5.024;2022-11-15T08:01:29;100738.59;;;10.32;100.00
58955;BME280;45815;52.334;5.024;2022-11-15T08:04:13;100728.09;;;10.32;100.00
58955;BME280;45815;52.334;5.024;2022-11-15T08:06:56;100727.22;;;10.31;100.00
58955;BME280;45815;52.334;5.024;2022-11-15T08:09:40;100728.13;;;10.33;100.00
58955;BME280;45815;52.334;5.024;2022-11-15T08:12:24;100736.94;;;10.35;100.00
58955;BME280;45815;52.334;5.024;2022-11-15T08:15:08;100732.69;;;10.42;100.00
58955;BME280;45815;52.334;5.024;2022-11-15T08:18:13;100738.84;;;10.46;100.00
58955;BME280;45815;52.334;5.024;2022-11-15T08:20:59;100724.88;;;10.47;100.00
58955;BME280;45815;52.334;5.024;2022-11-15T08:23:44;100725.84;;;10.53;100.00
58955;BME280;45815;52.334;5.024;2022-11-15T08:26:28;100723.22;;;10.53;100.00
58955;BME280;45815;52.334;5.024;2022-11-15T08:29:14;100724.13;;;10.55;100.00
58955;BME280;45815;52.334;5.024;2022-11-15T08:31:57;100717.19;;;10.56;100.00
58955;BME280;45815;52.334;5.024;2022-11-15T08:34:41;100712.84;;;10.60;100.00
58955;BME280;45815;52.334;5.024;2022-11-15T08:37:25;100715.59;;;10.67;100.00
58955;BME280;45815;52.334;5.024;2022-11-15T08:40:09;100707.72;;;10.67;100.00
58955;BME280;45815;52.334;5.024;2022-11-15T08:42:54;100705.13;;;10.69;100.00
58955;BME280;45815;52.334;5.024;2022-11-15T08:45:38;100699.91;;;10.72;100.00
58955;BME280;45815;52.334;5.024;2022-11-15T08:48:22;100692.16;;;10.78;100.00
58955;BME280;45815;52.334;5.024;2022-11-15T08:51:06;100693.13;;;10.85;100.00
58955;BME280;45815;52.334;5.024;2022-11-15T08:53:50;100694.06;;;10.90;100.00
58955;BME280;45815;52.334;5.024;2022-11-15T08:56:34;100694.13;;;10.93;100.00
58955;BME280;45815;52.334;5.024;2022-11-15T08:59:18;100691.56;;;10.96;100.00
58955;BME280;45815;52.334;5.024;2022-11-15T09:02:02;100680.16;;;10.95;100.00
58955;BME280;45815;52.334;5.024;2022-11-15T09:04:46;100686.38;;;11.01;100.00
58955;BME280;45815;52.334;5.024;2022-11-15T09:07:30;100684.69;;;11.07;100.00
58955;BME280;45815;52.334;5.024;2022-11-15T09:10:15;100689.16;;;11.13;100.00
58955;BME280;45815;52.334;5.024;2022-11-15T09:12:59;100681.31;;;11.14;100.00
58955;BME280;45815;52.334;5.024;2022-11-15T09:15:43;100669.06;;;11.16;100.00
58955;BME280;45815;52.334;5.024;2022-11-15T09:18:27;100678.72;;;11.17;100.00
58955;BME280;45815;52.334;5.024;2022-11-15T09:21:11;100666.41;;;11.13;100.00
58955;BME280;45815;52.334;5.024;2022-11-15T09:23:56;100679.63;;;11.21;100.00
58955;BME280;45815;52.334;5.024;2022-11-15T09:26:40;100659.53;;;11.22;100.00
58955;BME280;45815;52.334;5.024;2022-11-15T09:29:24;100658.69;;;11.26;100.00
58955;BME280;45815;52.334;5.024;2022-11-15T09:32:09;100665.91;;;11.42;100.00
58955;BME280;45815;52.334;5.024;2022-11-15T09:34:52;100664.25;;;11.52;100.00
58955;BME280;45815;52.334;5.024;2022-11-15T09:37:36;100656.50;;;11.59;100.00
58955;BME280;45815;52.334;5.024;2022-11-15T09:40:21;100648.63;;;11.62;100.00
58955;BME280;45815;52.334;5.024;2022-11-15T09:49:38;100655.78;;;11.74;100.00
58955;BME280;45815;52.334;5.024;2022-11-15T09:52:15;100658.53;;;11.85;100.00
58955;BME280;45815;52.334;5.024;2022-11-15T09:54:48;100651.59;;;11.90;100.00
58955;BME280;45815;52.334;5.024;2022-11-15T09:57:30;100648.09;;;11.90;100.00
58955;BME280;45815;52.334;5.024;2022-11-15T10:05:09;100640.22;;;11.91;100.00
58955;BME280;45815;52.334;5.024;2022-11-15T10:07:54;100640.25;;;11.94;100.00
58955;BME280;45815;52.334;5.024;2022-11-15T10:10:36;100640.22;;;11.91;100.00
58955;BME280;45815;52.334;5.024;2022-11-15T10:13:04;100644.72;;;12.01;100.00
58955;BME280;45815;52.334;5.024;2022-11-15T10:15:31;100647.34;;;12.03;100.00
58955;BME280;45815;52.334;5.024;2022-11-15T10:20:42;100631.56;;;12.03;100.00
58955;BME280;45815;52.334;5.024;2022-11-15T10:23:15;100627.25;;;12.10;100.00
58955;BME280;45815;52.334;5.024;2022-11-15T10:25:41;100613.19;;;12.08;100.00
58955;BME280;45815;52.334;5.024;2022-11-15T10:28:17;100618.47;;;12.09;100.00
58955;BME280;45815;52.334;5.024;2022-11-15T10:30:49;100607.94;;;12.08;100.00
58955;BME280;45815;52.334;5.024;2022-11-15T10:41:13;100570.19;;;12.02;100.00
58955;BME280;45815;52.334;5.024;2022-11-15T10:43:38;100574.59;;;12.07;100.00
58955;BME280;45815;52.334;5.024;2022-11-15T10:46:23;100573.72;;;12.08;100.00
58955;BME280;45815;52.334;5.024;2022-11-15T10:48:49;100568.53;;;12.17;100.00
58955;BME280;45815;52.334;5.024;2022-11-15T10:51:23;100570.38;;;12.25;100.00
58955;BME280;45815;52.334;5.024;2022-11-15T10:53:56;100557.25;;;12.27;100.00
58955;BME280;45815;52.334;5.024;2022-11-15T10:56:24;100554.53;;;12.19;100.00
58955;BME280;45815;52.334;5.024;2022-11-15T10:58:56;100562.56;;;12.35;100.00
58955;BME280;45815;52.334;5.024;2022-11-15T11:01:26;100567.00;;;12.42;100.00
58955;BME280;45815;52.334;5.024;2022-11-15T11:04:12;100559.13;;;12.43;100.00
58955;BME280;45815;52.334;5.024;2022-11-15T11:06:55;100550.34;;;12.48;100.00
58955;BME280;45815;52.334;5.024;2022-11-15T11:09:38;100542.50;;;12.54;100.00
58955;BME280;45815;52.334;5.024;2022-11-15T11:12:10;100538.19;;;12.71;100.00
58955;BME280;45815;52.334;5.024;2022-11-15T11:14:38;100532.09;;;12.77;100.00
58955;BME280;45815;52.334;5.024;2022-11-15T11:17:20;100535.63;;;12.82;100.00
58955;BME280;45815;52.334;5.024;2022-11-15T11:22:32;100538.28;;;12.89;100.00
58955;BME280;45815;52.334;5.024;2022-11-15T11:25:34;100542.72;;;12.94;100.00
58955;BME280;45815;52.334;5.024;2022-11-15T11:33:52;100531.28;;;12.88;100.00
58955;BME280;45815;52.334;5.024;2022-11-15T11:45:18;100518.09;;;12.87;100.00
58955;BME280;45815;52.334;5.024;2022-11-15T11:48:45;100503.22;;;13.06;100.00
58955;BME280;45815;52.334;5.024;2022-11-15T11:50:44;100494.56;;;13.32;100.00
58955;BME280;45815;52.334;5.024;2022-11-15T11:53:52;100477.91;;;13.66;100.00
58955;BME280;45815;52.334;5.024;2022-11-15T11:56:26;100486.72;;;13.96;100.00
58955;BME280;45815;52.334;5.024;2022-11-15T11:58:55;100466.44;;;14.13;100.00
58955;BME280;45815;52.334;5.024;2022-11-15T12:01:41;100456.75;;;14.31;100.00
58955;BME280;45815;52.334;5.024;2022-11-15T12:04:30;100454.06;;;14.37;100.00
58955;BME280;45815;52.334;5.024;2022-11-15T12:07:05;100452.31;;;14.39;100.00
58955;BME280;45815;52.334;5.024;2022-11-15T12:09:39;100449.69;;;14.36;100.00
58955;BME280;45815;52.334;5.024;2022-11-15T12:12:23;100447.94;;;14.33;100.00
58955;BME280;45815;52.334;5.024;2022-11-15T12:14:54;100440.00;;;14.38;100.00
58955;BME280;45815;52.334;5.024;2022-11-15T12:17:25;100431.16;;;14.48;100.00
58955;BME280;45815;52.334;5.024;2022-11-15T12:20:04;100426.72;;;14.53;100.00
58955;BME280;45815;52.334;5.024;2022-11-15T12:22:44;100431.16;;;14.64;100.00
58955;BME280;45815;52.334;5.024;2022-11-15T12:30:56;100409.09;;;14.69;100.00
58955;BME280;45815;52.334;5.024;2022-11-15T12:33:35;100409.06;;;14.74;100.00
58955;BME280;45815;52.334;5.024;2022-11-15T12:36:04;100401.06;;;14.86;100.00
58955;BME280;45815;52.334;5.024;2022-11-15T12:38:53;100407.06;;;15.16;100.00
58955;BME280;45815;52.334;5.024;2022-11-15T12:41:21;100406.91;;;15.39;100.00
58955;BME280;45815;52.334;5.024;2022-11-15T12:43:48;100391.84;;;15.49;100.00
58955;BME280;45815;52.334;5.024;2022-11-15T12:49:07;100384.94;;;15.29;100.00
58955;BME280;45815;52.334;5.024;2022-11-15T12:59:57;100361.94;;;15.40;100.00
58955;BME280;45815;52.334;5.024;2022-11-15T13:02:25;100359.38;;;15.28;100.00
58955;BME280;45815;52.334;5.024;2022-11-15T13:04:53;100358.50;;;15.26;100.00
58955;BME280;45815;52.334;5.024;2022-11-15T13:10:00;100353.31;;;15.14;100.00
58955;BME280;45815;52.334;5.024;2022-11-15T13:14:58;100346.44;;;14.94;100.00
58955;BME280;45815;52.334;5.024;2022-11-15T13:17:33;100337.63;;;14.92;100.00
58955;BME280;45815;52.334;5.024;2022-11-15T13:25:40;100324.75;;;14.31;100.00
58955;BME280;45815;52.334;5.024;2022-11-15T13:30:50;100313.41;;;14.06;100.00
58955;BME280;45815;52.334;5.024;2022-11-15T13:33:19;100320.44;;;14.08;100.00
58955;BME280;45815;52.334;5.024;2022-11-15T13:35:47;100305.50;;;14.03;100.00
58955;BME280;45815;52.334;5.024;2022-11-15T13:38:29;100314.31;;;13.97;100.00
58955;BME280;45815;52.334;5.024;2022-11-15T13:40:58;100308.13;;;14.04;100.00
58955;BME280;45815;52.334;5.024;2022-11-15T13:43:29;100300.25;;;13.92;100.00
58955;BME280;45815;52.334;5.024;2022-11-15T13:46:28;100301.19;;;13.69;100.00
58955;BME280;45815;52.334;5.024;2022-11-15T13:48:55;100300.31;;;13.75;100.00
58955;BME280;45815;52.334;5.024;2022-11-15T13:51:32;100281.88;;;13.60;100.00
58955;BME280;45815;52.334;5.024;2022-11-15T13:54:20;100288.06;;;13.40;100.00
58955;BME280;45815;52.334;5.024;2022-11-15T13:56:54;100288.97;;;13.35;100.00
58955;BME280;45815;52.334;5.024;2022-11-15T14:01:49;100281.94;;;13.27;100.00
58955;BME280;45815;52.334;5.024;2022-11-15T14:04:19;100266.97;;;13.16;100.00
58955;BME280;45815;52.334;5.024;2022-11-15T14:06:48;100277.53;;;13.08;100.00
58955;BME280;45815;52.334;5.024;2022-11-15T14:12:19;100262.59;;;12.88;100.00
58955;BME280;45815;52.334;5.024;2022-11-15T14:14:46;100268.75;;;12.84;100.00
58955;BME280;45815;52.334;5.024;2022-11-15T14:17:37;100260.84;;;12.69;100.00
58955;BME280;45815;52.334;5.024;2022-11-15T14:22:55;100253.81;;;12.65;100.00
58955;BME280;45815;52.334;5.024;2022-11-15T14:25:34;100249.38;;;12.55;100.00
58955;BME280;45815;52.334;5.024;2022-11-15T14:30:45;100241.50;;;12.52;100.00
58955;BME280;45815;52.334;5.024;2022-11-15T14:33:25;100232.72;;;12.50;100.00
58955;BME280;45815;52.334;5.024;2022-11-15T14:35:53;100233.63;;;12.53;100.00
58955;BME280;45815;52.334;5.024;2022-11-15T14:38:21;100235.38;;;12.48;100.00
58955;BME280;45815;52.334;5.024;2022-11-15T14:40:46;100236.22;;;12.49;100.00
58955;BME280;45815;52.334;5.024;2022-11-15T14:43:13;100224.84;;;12.48;100.00
58955;BME280;45815;52.334;5.024;2022-11-15T14:45:39;100216.06;;;12.41;100.00
58955;BME280;45815;52.334;5.024;2022-11-15T14:48:05;100216.03;;;12.44;100.00
58955;BME280;45815;52.334;5.024;2022-11-15T14:50:31;100209.91;;;12.45;100.00
58955;BME280;45815;52.334;5.024;2022-11-15T14:52:58;100202.03;;;12.45;100.00
58955;BME280;45815;52.334;5.024;2022-11-15T14:55:28;100199.38;;;12.42;100.00
58955;BME280;45815;52.334;5.024;2022-11-15T14:57:56;100198.50;;;12.42;100.00
58955;BME280;45815;52.334;5.024;2022-11-15T15:00:22;100198.50;;;12.42;100.00
58955;BME280;45815;52.334;5.024;2022-11-15T15:02:48;100190.59;;;12.40;100.00
58955;BME280;45815;52.334;5.024;2022-11-15T15:05:24;100194.13;;;12.36;100.00
58955;BME280;45815;52.334;5.024;2022-11-15T15:07:50;100187.06;;;12.35;100.00
58955;BME280;45815;52.334;5.024;2022-11-15T15:10:19;100161.63;;;12.25;100.00
58955;BME280;45815;52.334;5.024;2022-11-15T15:12:45;100123.03;;;12.04;100.00
58955;BME280;45815;52.334;5.024;2022-11-15T15:15:13;100166.88;;;12.31;100.00
58955;BME280;45815;52.334;5.024;2022-11-15T15:17:40;100164.25;;;12.28;100.00
58955;BME280;45815;52.334;5.024;2022-11-15T15:20:06;100154.63;;;12.25;100.00
58955;BME280;45815;52.334;5.024;2022-11-15T15:22:31;100154.59;;;12.24;100.00
58955;BME280;45815;52.334;5.024;2022-11-15T15:24:57;100146.72;;;12.24;100.00
58955;BME280;45815;52.334;5.024;2022-11-15T15:27:22;100148.47;;;12.19;100.00
58955;BME280;45815;52.334;5.024;2022-11-15T15:29:47;100140.56;;;12.19;100.00
58955;BME280;45815;52.334;5.024;2022-11-15T15:32:13;100137.09;;;12.15;100.00
58955;BME280;45815;52.334;5.024;2022-11-15T15:34:39;100123.91;;;12.11;100.00
58955;BME280;45815;52.334;5.024;2022-11-15T15:37:25;100125.66;;;12.02;100.00
58955;BME280;45815;52.334;5.024;2022-11-15T15:39:55;100127.44;;;12.08;100.00
58955;BME280;45815;52.334;5.024;2022-11-15T15:42:21;100125.66;;;12.04;100.00
58955;BME280;45815;52.334;5.024;2022-11-15T15:44:48;100133.53;;;12.04;100.00